Time;durP1;ratioP1;P1;durP2;ratioP2;P2;SDS_P1;SDS_P2;PMS_P1;PMS_P2;Temp;Humidity;BMP_temperature;BMP_pressure;BME280_temperature;BME280_humidity;BME280_pressure;Samples;Min_cycle;Max_cycle;Signal;HPM_P1;HPM_P2
2023/04/29 00:00:52;;;;;;;71.68;48.78;;;9.40;99.90;;;;;;6183493;23;20055;-87
2023/04/29 00:03:18;;;;;;;72.50;45.45;;;9.50;99.90;;;;;;6157238;23;20012;-88
2023/04/29 00:05:44;;;;;;;71.45;46.97;;;9.40;99.90;;;;;;6157369;23;20020;-87
2023/04/29 00:08:10;;;;;;;66.72;45.13;;;9.40;99.90;;;;;;6182041;23;20013;-88
2023/04/29 00:10:36;;;;;;;69.65;44.90;;;10.20;99.90;;;;;;6181304;23;20005;-87
2023/04/29 00:13:02;;;;;;;70.28;44.75;;;10.00;99.90;;;;;;6182005;23;20017;-88
2023/04/29 00:15:28;;;;;;;69.05;46.58;;;9.40;99.90;;;;;;6156947;23;20013;-88
2023/04/29 00:17:54;;;;;;;70.85;43.45;;;9.70;99.90;;;;;;6157229;23;20108;-88
2023/04/29 00:20:20;;;;;;;63.58;41.55;;;9.30;99.90;;;;;;6182511;23;20524;-87
2023/04/29 00:22:46;;;;;;;65.13;43.55;;;9.80;99.90;;;;;;6157306;23;20009;-88
2023/04/29 00:25:11;;;;;;;65.43;41.95;;;9.70;99.90;;;;;;6156846;23;20013;-87
2023/04/29 00:27:38;;;;;;;58.25;41.33;;;9.30;99.90;;;;;;6157310;23;20017;-87
2023/04/29 00:30:08;;;;;;;65.55;44.85;;;9.90;99.90;;;;;;6157474;23;20020;-88
2023/04/29 00:32:33;;;;;;;70.88;46.60;;;9.30;99.90;;;;;;6182502;23;20024;-87
2023/04/29 00:34:59;;;;;;;65.72;44.50;;;9.20;99.90;;;;;;6182054;23;20017;-86
2023/04/29 00:37:25;;;;;;;71.68;47.50;;;9.20;99.90;;;;;;6183764;23;20096;-88
2023/04/29 00:39:50;;;;;;;77.50;46.92;;;9.60;99.90;;;;;;6181662;23;20297;-88
2023/04/29 00:42:16;;;;;;;81.47;49.08;;;9.20;99.90;;;;;;6182568;23;20108;-88
2023/04/29 00:44:41;;;;;;;71.72;46.00;;;9.70;99.90;;;;;;6182173;23;20005;-87
2023/04/29 00:47:10;;;;;;;82.63;47.28;;;9.20;99.90;;;;;;6182077;23;20066;-87
2023/04/29 00:49:38;;;;;;;76.80;46.03;;;9.80;99.90;;;;;;6181969;23;20013;-87
2023/04/29 00:52:06;;;;;;;73.18;46.42;;;9.80;99.90;;;;;;6182306;23;20016;-88
2023/04/29 00:54:33;;;;;;;69.68;46.13;;;10.00;99.90;;;;;;6181337;23;20017;-88
2023/04/29 00:57:00;;;;;;;76.22;47.45;;;9.70;99.90;;;;;;6156690;23;20013;-87
2023/04/29 00:59:30;;;;;;;76.30;47.70;;;9.40;99.90;;;;;;6183752;23;20013;-87
2023/04/29 01:02:02;;;;;;;69.97;44.28;;;9.80;99.90;;;;;;6182257;23;20085;-88
2023/04/29 01:04:28;;;;;;;71.97;46.42;;;9.10;99.90;;;;;;6157196;23;20017;-88
2023/04/29 01:07:29;;;;;;;65.45;44.65;;;9.90;99.90;;;;;;6158589;23;20021;-88
2023/04/29 01:10:13;;;;;;;57.75;40.20;;;9.10;99.90;;;;;;6168461;23;20048;-87
2023/04/29 01:13:06;;;;;;;60.95;39.80;;;9.10;99.90;;;;;;6186242;23;20005;-88
2023/04/29 01:16:03;;;;;;;58.40;38.95;;;9.10;99.90;;;;;;6159060;23;20429;-88
2023/04/29 01:18:33;;;;;;;59.13;38.63;;;9.10;99.90;;;;;;6159253;23;20017;-88
2023/04/29 01:20:59;;;;;;;57.08;35.90;;;9.10;99.90;;;;;;6159196;23;20009;-88
2023/04/29 01:23:28;;;;;;;59.63;37.55;;;9.80;99.90;;;;;;6158534;23;20088;-87
2023/04/29 01:25:54;;;;;;;54.97;37.33;;;9.10;99.90;;;;;;6183775;23;20012;-87
2023/04/29 01:28:32;;;;;;;50.15;33.65;;;9.10;99.90;;;;;;6184046;23;20117;-87
2023/04/29 01:31:25;;;;;;;47.75;32.75;;;9.10;99.90;;;;;;6184147;23;20013;-87
2023/04/29 01:33:54;;;;;;;50.28;32.13;;;9.10;99.90;;;;;;6158713;23;20013;-87
2023/04/29 01:36:31;;;;;;;49.10;31.75;;;9.10;99.90;;;;;;6158809;23;20009;-87
2023/04/29 01:39:27;;;;;;;50.45;32.50;;;9.00;99.90;;;;;;6158568;23;20017;-88
2023/04/29 01:42:01;;;;;;;54.13;33.97;;;9.00;99.90;;;;;;6187242;23;20017;-86
2023/04/29 01:44:30;;;;;;;53.90;32.40;;;9.00;99.90;;;;;;6163497;23;20020;-87
2023/04/29 01:46:56;;;;;;;44.22;31.17;;;9.00;99.90;;;;;;6188293;23;20017;-87
2023/04/29 01:49:26;;;;;;;47.92;31.70;;;9.20;99.90;;;;;;6186592;23;20013;-88
2023/04/29 01:51:52;;;;;;;47.00;31.45;;;8.90;99.90;;;;;;6161684;23;20095;-87
2023/04/29 01:54:17;;;;;;;53.47;32.15;;;8.90;99.90;;;;;;6182888;23;20036;-87
2023/04/29 01:56:43;;;;;;;41.95;29.40;;;8.90;99.90;;;;;;6183925;23;20009;-87
2023/04/29 01:59:09;;;;;;;47.70;31.20;;;8.90;99.90;;;;;;6183382;23;20029;-87
2023/04/29 02:01:35;;;;;;;41.70;29.70;;;8.90;99.90;;;;;;6158360;23;20075;-87
2023/04/29 02:04:01;;;;;;;48.28;30.05;;;8.90;99.90;;;;;;6183753;23;20009;-87
2023/04/29 02:06:27;;;;;;;45.50;31.48;;;8.90;99.90;;;;;;6159006;23;20009;-87
2023/04/29 02:08:53;;;;;;;44.65;30.13;;;8.90;99.90;;;;;;6183035;23;20071;-87
2023/04/29 02:11:19;;;;;;;45.22;30.10;;;9.00;99.90;;;;;;6184991;23;20021;-86
2023/04/29 02:13:46;;;;;;;51.17;31.55;;;8.90;99.90;;;;;;6163331;23;20020;-87
2023/04/29 02:16:13;;;;;;;47.22;32.28;;;8.90;99.90;;;;;;6163332;23;20009;-87
2023/04/29 02:18:39;;;;;;;50.28;30.52;;;8.90;99.90;;;;;;6187878;23;20019;-87
2023/04/29 02:21:05;;;;;;;49.08;32.42;;;8.90;99.90;;;;;;6188142;23;20063;-87
2023/04/29 02:23:31;;;;;;;53.97;33.20;;;8.90;99.90;;;;;;6188690;23;20005;-87
2023/04/29 02:25:57;;;;;;;46.60;33.30;;;9.30;99.90;;;;;;6163004;23;20403;-87
2023/04/29 02:28:22;;;;;;;52.35;32.15;;;8.90;99.90;;;;;;6163688;23;20012;-87
2023/04/29 02:30:48;;;;;;;48.92;33.25;;;8.80;99.90;;;;;;6163374;23;20012;-87
2023/04/29 02:33:14;;;;;;;48.97;31.15;;;9.10;99.90;;;;;;6187859;23;20013;-87
2023/04/29 02:35:40;;;;;;;49.58;34.10;;;8.80;99.90;;;;;;6187975;23;20013;-87
2023/04/29 02:38:06;;;;;;;49.83;31.67;;;9.10;99.90;;;;;;6187965;23;20323;-87
2023/04/29 02:40:32;;;;;;;53.60;33.13;;;8.70;99.90;;;;;;6162558;23;20008;-87
2023/04/29 02:42:57;;;;;;;45.85;31.38;;;8.70;99.90;;;;;;6188385;23;20042;-87
2023/04/29 02:45:23;;;;;;;50.42;32.53;;;8.70;99.90;;;;;;6188167;23;20012;-88
2023/04/29 02:47:49;;;;;;;47.63;30.88;;;8.70;99.90;;;;;;6188071;23;20016;-88
2023/04/29 02:50:15;;;;;;;48.40;32.75;;;8.70;99.90;;;;;;6162489;23;20031;-87
2023/04/29 02:52:43;;;;;;;47.63;32.42;;;8.70;99.90;;;;;;6187921;23;20012;-87
2023/04/29 02:55:09;;;;;;;47.80;31.45;;;8.60;99.90;;;;;;6187878;23;20440;-88
2023/04/29 02:57:34;;;;;;;48.75;33.60;;;8.60;99.90;;;;;;6187620;23;20096;-87
2023/04/29 03:00:00;;;;;;;48.92;30.60;;;8.60;99.90;;;;;;6188002;23;20044;-87
2023/04/29 03:02:26;;;;;;;56.78;34.85;;;8.60;99.90;;;;;;6162980;23;20015;-87
2023/04/29 03:04:52;;;;;;;48.67;30.77;;;8.90;99.90;;;;;;6162716;23;20064;-87
2023/04/29 03:07:17;;;;;;;52.38;31.80;;;8.60;99.90;;;;;;6188460;23;20099;-88
2023/04/29 03:09:43;;;;;;;45.20;31.95;;;8.70;99.90;;;;;;6214784;23;20036;-88
2023/04/29 03:12:09;;;;;;;46.92;29.90;;;8.60;99.90;;;;;;6187924;23;20017;-88
2023/04/29 03:14:35;;;;;;;47.03;30.70;;;8.80;99.90;;;;;;6188232;23;20091;-88
2023/04/29 03:17:01;;;;;;;44.30;32.40;;;8.50;99.90;;;;;;6188110;23;20009;-88
2023/04/29 03:19:26;;;;;;;48.45;31.02;;;8.50;99.90;;;;;;6214151;23;20112;-87
2023/04/29 03:21:52;;;;;;;50.20;32.42;;;8.70;99.90;;;;;;6163341;23;20077;-88
2023/04/29 03:24:17;;;;;;;52.42;32.80;;;8.60;99.90;;;;;;6165937;23;20016;-87
2023/04/29 03:26:44;;;;;;;53.38;31.85;;;8.80;99.90;;;;;;6163334;23;20017;-87
2023/04/29 03:29:09;;;;;;;52.47;31.00;;;8.50;99.90;;;;;;6162767;23;20400;-88
2023/04/29 03:31:35;;;;;;;37.97;29.00;;;8.60;99.90;;;;;;6162819;23;20129;-87
2023/04/29 03:34:01;;;;;;;47.72;28.90;;;8.60;99.90;;;;;;6162528;23;20009;-88
2023/04/29 03:36:26;;;;;;;43.42;27.80;;;9.20;99.90;;;;;;6162824;23;20103;-87
2023/04/29 03:38:52;;;;;;;45.53;28.55;;;8.60;99.90;;;;;;6162750;23;20008;-87
2023/04/29 03:41:18;;;;;;;47.22;30.65;;;8.60;99.90;;;;;;6217671;23;20083;-88
2023/04/29 03:43:43;;;;;;;41.13;27.83;;;8.80;99.90;;;;;;6162763;23;20443;-87
2023/04/29 03:46:09;;;;;;;35.47;25.95;;;8.60;99.90;;;;;;6162698;23;20020;-88
2023/04/29 03:48:36;;;;;;;39.95;26.20;;;8.60;99.90;;;;;;6187351;23;20013;-88
2023/04/29 03:51:02;;;;;;;38.92;26.10;;;8.60;99.90;;;;;;6163065;23;20281;-88
2023/04/29 03:53:29;;;;;;;40.97;28.10;;;8.60;99.90;;;;;;6188120;23;20012;-87
2023/04/29 03:55:55;;;;;;;45.95;26.00;;;8.60;99.90;;;;;;6187670;23;20012;-88
2023/04/29 03:58:22;;;;;;;39.40;25.55;;;8.80;99.90;;;;;;6192375;23;20055;-88
2023/04/29 04:00:48;;;;;;;40.47;26.05;;;8.60;99.90;;;;;;6167635;23;20016;-88
2023/04/29 04:03:14;;;;;;;37.03;23.70;;;8.70;99.90;;;;;;6194306;23;20123;-88
2023/04/29 04:05:39;;;;;;;35.85;24.27;;;8.60;99.90;;;;;;6167792;23;20008;-87
2023/04/29 04:08:05;;;;;;;33.83;22.95;;;8.60;99.90;;;;;;6187482;23;20005;-88
2023/04/29 04:10:31;;;;;;;34.67;23.85;;;8.60;99.90;;;;;;6162529;23;20012;-88
2023/04/29 04:12:59;;;;;;;33.58;23.15;;;8.70;99.90;;;;;;6187020;23;20016;-88
2023/04/29 04:15:25;;;;;;;35.58;22.05;;;9.00;99.90;;;;;;6187338;23;20013;-88
2023/04/29 04:17:50;;;;;;;40.53;24.10;;;8.60;99.90;;;;;;6161848;23;20020;-88
2023/04/29 04:20:16;;;;;;;35.72;23.10;;;8.60;99.90;;;;;;6187621;23;20012;-88
2023/04/29 04:22:42;;;;;;;33.30;22.83;;;8.60;99.90;;;;;;6187839;23;20012;-88
2023/04/29 04:25:08;;;;;;;32.28;23.40;;;8.60;99.90;;;;;;6162265;23;20344;-87
2023/04/29 04:27:34;;;;;;;33.05;21.27;;;8.60;99.90;;;;;;6187693;23;20084;-88
2023/04/29 04:30:00;;;;;;;34.78;22.92;;;8.60;99.90;;;;;;6162549;23;20012;-88
2023/04/29 04:32:25;;;;;;;36.45;23.02;;;8.60;99.90;;;;;;6194562;23;20027;-87
2023/04/29 04:34:51;;;;;;;37.90;23.23;;;8.60;99.90;;;;;;6172573;23;20494;-87
2023/04/29 04:37:17;;;;;;;32.33;21.67;;;8.60;99.90;;;;;;6190335;23;20013;-88
2023/04/29 04:39:43;;;;;;;33.53;22.27;;;8.60;99.90;;;;;;6187485;23;20009;-88
2023/04/29 04:42:08;;;;;;;33.05;22.33;;;8.70;99.90;;;;;;6163892;23;20008;-88
2023/04/29 04:44:34;;;;;;;40.85;24.30;;;8.60;99.90;;;;;;6189503;23;20101;-88
2023/04/29 04:47:00;;;;;;;35.80;22.85;;;8.70;99.90;;;;;;6164439;23;20012;-88
2023/04/29 04:49:26;;;;;;;36.63;22.95;;;8.70;99.90;;;;;;6163950;23;20424;-88
2023/04/29 04:51:52;;;;;;;33.38;22.27;;;8.70;99.90;;;;;;6193244;23;20016;-88
2023/04/29 04:54:18;;;;;;;33.40;21.05;;;8.70;99.90;;;;;;6164459;23;20020;-88
2023/04/29 04:56:44;;;;;;;31.42;22.52;;;8.70;99.90;;;;;;6172040;23;20074;-88
2023/04/29 04:59:10;;;;;;;34.75;22.10;;;9.30;99.90;;;;;;6199485;23;20032;-87
2023/04/29 05:01:35;;;;;;;33.53;21.92;;;8.70;99.90;;;;;;6163629;23;20009;-88
2023/04/29 05:04:02;;;;;;;34.90;22.42;;;8.70;99.90;;;;;;6170527;23;20091;-88
2023/04/29 05:06:27;;;;;;;38.58;23.63;;;8.70;99.90;;;;;;6189225;23;20020;-88
2023/04/29 05:08:53;;;;;;;32.08;22.73;;;9.30;99.90;;;;;;6194154;23;20013;-88
2023/04/29 05:11:20;;;;;;;36.42;22.48;;;8.70;99.90;;;;;;6188775;23;20017;-88
2023/04/29 05:13:46;;;;;;;33.47;23.48;;;8.70;99.90;;;;;;6164051;23;20016;-88
2023/04/29 05:16:13;;;;;;;34.78;22.73;;;9.60;99.90;;;;;;6164415;23;20020;-88
2023/04/29 05:18:39;;;;;;;33.15;21.35;;;9.60;99.90;;;;;;6164035;23;20502;-88
2023/04/29 05:21:05;;;;;;;29.90;21.17;;;9.00;99.90;;;;;;6188807;23;20027;-88
2023/04/29 05:23:30;;;;;;;31.92;21.15;;;8.80;99.90;;;;;;6189230;23;20089;-88
2023/04/29 05:25:59;;;;;;;29.73;20.58;;;9.50;99.90;;;;;;6188694;23;20379;-89
2023/04/29 05:28:24;;;;;;;32.78;21.50;;;9.40;99.90;;;;;;6215613;23;20067;-88
2023/04/29 05:30:50;;;;;;;32.55;20.08;;;9.20;99.90;;;;;;6188376;23;20013;-88
2023/04/29 05:33:16;;;;;;;30.58;20.58;;;8.80;99.90;;;;;;6163915;23;20008;-88
2023/04/29 05:35:42;;;;;;;29.98;19.70;;;8.80;99.90;;;;;;6189885;23;20015;-86
2023/04/29 05:38:08;;;;;;;30.65;21.08;;;8.80;99.90;;;;;;6192313;23;20027;-89
2023/04/29 05:40:33;;;;;;;30.67;20.65;;;9.00;99.90;;;;;;6167278;23;20064;-88
2023/04/29 05:42:59;;;;;;;31.42;21.05;;;8.90;99.90;;;;;;6169958;23;20068;-88
2023/04/29 05:45:25;;;;;;;26.80;20.42;;;8.90;99.90;;;;;;6171098;23;20452;-87
2023/04/29 05:47:51;;;;;;;28.05;20.48;;;9.00;99.90;;;;;;6170174;23;20040;-87
2023/04/29 05:50:17;;;;;;;29.70;18.98;;;8.90;99.90;;;;;;6170153;23;20016;-88
2023/04/29 05:52:42;;;;;;;32.53;19.90;;;9.00;99.90;;;;;;6171359;23;20333;-89
2023/04/29 05:55:08;;;;;;;31.45;21.17;;;8.90;99.90;;;;;;6171312;23;20017;-88
2023/04/29 05:57:34;;;;;;;27.33;18.20;;;9.40;99.90;;;;;;6196938;23;20012;-88
2023/04/29 06:00:00;;;;;;;27.15;19.48;;;9.30;99.90;;;;;;6163988;23;20084;-89
2023/04/29 06:02:26;;;;;;;27.13;18.17;;;9.10;99.90;;;;;;6164169;23;20447;-88
2023/04/29 06:04:52;;;;;;;28.13;18.42;;;9.10;99.90;;;;;;6199929;23;20015;-87
2023/04/29 06:07:18;;;;;;;26.55;18.40;;;9.20;99.90;;;;;;6191534;23;20087;-88
2023/04/29 06:09:43;;;;;;;26.52;17.80;;;9.90;99.90;;;;;;6163263;23;20079;-88
2023/04/29 06:12:10;;;;;;;28.60;17.90;;;9.30;99.90;;;;;;6166184;23;20051;-89
2023/04/29 06:14:36;;;;;;;24.83;16.33;;;9.40;99.90;;;;;;6188195;23;20008;-88
2023/04/29 06:17:02;;;;;;;22.50;16.10;;;10.00;99.90;;;;;;6163501;23;20138;-88
2023/04/29 06:19:28;;;;;;;23.27;16.77;;;9.60;99.90;;;;;;6188519;23;20071;-89
2023/04/29 06:21:54;;;;;;;21.38;16.02;;;9.40;99.90;;;;;;6188797;23;20360;-88
2023/04/29 06:24:19;;;;;;;20.02;14.40;;;9.50;99.90;;;;;;6163433;23;20020;-88
2023/04/29 06:26:45;;;;;;;22.88;14.43;;;9.50;99.90;;;;;;6163209;23;20059;-88
2023/04/29 06:29:11;;;;;;;21.75;14.20;;;9.60;99.90;;;;;;6162629;23;20012;-87
2023/04/29 06:31:37;;;;;;;21.23;14.55;;;10.20;99.90;;;;;;6188537;23;20016;-89
2023/04/29 06:34:03;;;;;;;20.35;14.40;;;10.00;99.90;;;;;;6188545;23;20389;-88
2023/04/29 06:36:28;;;;;;;19.38;14.23;;;10.90;99.90;;;;;;6188461;23;20071;-89
2023/04/29 06:38:54;;;;;;;23.00;14.23;;;10.70;99.90;;;;;;6163206;23;20009;-88
2023/04/29 06:41:20;;;;;;;19.92;12.55;;;10.90;99.90;;;;;;6188343;23;20005;-89
2023/04/29 06:43:46;;;;;;;20.25;11.63;;;11.90;99.90;;;;;;6162445;23;20015;-88
2023/04/29 06:46:12;;;;;;;15.63;10.38;;;12.60;99.90;;;;;;6163155;23;20137;-89
2023/04/29 06:48:37;;;;;;;16.35;9.95;;;13.30;99.90;;;;;;6163166;23;20016;-89
2023/04/29 06:51:03;;;;;;;14.93;10.20;;;14.10;99.90;;;;;;6166509;23;20013;-89
2023/04/29 06:53:29;;;;;;;15.73;10.60;;;14.80;99.90;;;;;;6168152;23;20035;-89
2023/04/29 06:55:55;;;;;;;15.20;10.32;;;14.40;99.90;;;;;;6163023;23;20067;-89
2023/04/29 06:58:20;;;;;;;14.82;10.82;;;14.40;99.90;;;;;;6162673;23;20011;-89
2023/04/29 07:00:48;;;;;;;16.80;10.50;;;13.50;99.90;;;;;;6162512;23;20012;-88
2023/04/29 07:03:15;;;;;;;14.98;9.88;;;13.00;99.90;;;;;;6163115;23;20088;-89
2023/04/29 07:05:41;;;;;;;13.82;9.43;;;12.20;99.90;;;;;;6162811;23;20008;-89
2023/04/29 07:08:09;;;;;;;13.75;9.73;;;12.00;99.90;;;;;;6220890;23;20203;-89
2023/04/29 07:10:34;;;;;;;15.18;10.32;;;11.90;99.90;;;;;;6187982;23;20015;-87
2023/04/29 07:13:00;;;;;;;13.63;9.55;;;11.60;99.90;;;;;;6213398;23;20339;-88
2023/04/29 07:15:26;;;;;;;14.98;9.23;;;11.70;99.90;;;;;;6187586;23;20012;-88
2023/04/29 07:17:53;;;;;;;14.02;9.38;;;11.80;99.90;;;;;;6162548;23;20023;-88
2023/04/29 07:20:19;;;;;;;13.18;9.55;;;12.50;99.90;;;;;;6162734;23;20013;-88
2023/04/29 07:22:44;;;;;;;13.30;9.77;;;13.40;99.90;;;;;;6214443;23;20055;-89
2023/04/29 07:25:10;;;;;;;14.40;9.45;;;14.40;99.90;;;;;;6188006;23;20005;-89
2023/04/29 07:27:36;;;;;;;11.00;9.23;;;15.10;99.90;;;;;;6166188;23;20020;-89
2023/04/29 07:30:03;;;;;;;13.23;8.65;;;15.20;99.90;;;;;;6187534;23;20354;-89
2023/04/29 07:32:32;;;;;;;15.25;9.35;;;15.50;99.90;;;;;;6165338;23;20008;-86
2023/04/29 07:34:58;;;;;;;11.65;8.57;;;16.30;99.90;;;;;;6161799;23;20013;-87
2023/04/29 07:37:24;;;;;;;15.00;9.10;;;16.20;99.90;;;;;;6214184;23;20016;-88
2023/04/29 07:39:50;;;;;;;16.95;9.20;;;16.50;99.90;;;;;;6195077;23;20008;-89
2023/04/29 07:42:16;;;;;;;11.15;9.23;;;16.40;99.90;;;;;;6161711;23;20008;-88
2023/04/29 07:44:44;;;;;;;11.65;9.05;;;15.90;99.90;;;;;;6189453;23;20048;-89
2023/04/29 07:47:10;;;;;;;13.80;9.05;;;16.40;99.90;;;;;;6191346;23;20013;-87
2023/04/29 07:49:36;;;;;;;13.02;8.80;;;16.50;99.90;;;;;;6167157;23;20461;-88
2023/04/29 07:52:03;;;;;;;17.40;8.68;;;16.90;99.90;;;;;;6188633;23;20012;-89
2023/04/29 07:54:32;;;;;;;12.57;8.10;;;17.40;99.90;;;;;;6162508;23;20020;-89
2023/04/29 07:56:57;;;;;;;12.60;8.88;;;17.70;99.90;;;;;;6164947;23;20017;-87
2023/04/29 07:59:23;;;;;;;14.80;9.25;;;17.70;99.90;;;;;;6166717;23;20291;-86
2023/04/29 08:01:49;;;;;;;12.48;8.73;;;16.40;99.90;;;;;;6164536;23;20024;-86
2023/04/29 08:04:14;;;;;;;13.50;9.02;;;16.90;99.90;;;;;;6190337;23;20013;-86
2023/04/29 08:06:43;;;;;;;13.00;9.15;;;16.20;99.90;;;;;;6187314;23;20040;-88
2023/04/29 08:09:09;;;;;;;11.52;8.77;;;16.30;99.90;;;;;;6186311;23;20084;-86
2023/04/29 08:11:35;;;;;;;12.95;8.80;;;16.70;99.90;;;;;;6186409;23;20017;-86
2023/04/29 08:14:01;;;;;;;14.13;8.55;;;16.60;99.90;;;;;;6186750;23;20063;-86
2023/04/29 08:16:27;;;;;;;13.45;8.35;;;16.90;99.90;;;;;;6162149;23;20020;-86
2023/04/29 08:18:53;;;;;;;11.48;7.40;;;17.00;99.90;;;;;;6191733;23;20021;-86
2023/04/29 08:21:19;;;;;;;12.25;7.05;;;17.20;99.90;;;;;;6191632;23;20016;-86
2023/04/29 08:23:44;;;;;;;9.43;6.90;;;17.40;99.90;;;;;;6163018;23;20012;-86
2023/04/29 08:26:13;;;;;;;13.32;7.10;;;17.50;99.90;;;;;;6215294;23;20009;-86
2023/04/29 08:28:39;;;;;;;11.13;6.90;;;16.90;99.90;;;;;;6191889;23;20015;-86
2023/04/29 08:31:06;;;;;;;11.55;7.10;;;16.60;99.90;;;;;;6171390;23;20016;-86
2023/04/29 08:33:33;;;;;;;11.50;6.95;;;16.10;99.90;;;;;;6192981;23;20051;-86
2023/04/29 08:36:03;;;;;;;10.90;7.60;;;16.30;99.90;;;;;;6194231;23;20386;-86
2023/04/29 08:38:29;;;;;;;11.35;6.90;;;16.90;99.90;;;;;;6197468;23;20055;-86
2023/04/29 08:40:55;;;;;;;11.40;6.90;;;16.90;99.90;;;;;;6198568;23;20016;-85
2023/04/29 08:43:21;;;;;;;13.75;7.20;;;17.00;99.90;;;;;;6173845;23;20060;-85
2023/04/29 08:45:48;;;;;;;9.85;6.50;;;16.90;99.90;;;;;;6169478;23;20384;-86
2023/04/29 08:48:16;;;;;;;11.73;7.25;;;17.20;99.90;;;;;;6163275;23;20013;-86
2023/04/29 08:50:42;;;;;;;12.20;6.90;;;16.90;99.90;;;;;;6163820;23;20009;-85
2023/04/29 08:53:13;;;;;;;11.43;7.05;;;16.80;99.90;;;;;;6191065;23;20075;-85
2023/04/29 08:55:43;;;;;;;11.75;7.05;;;16.60;99.90;;;;;;6167439;23;20054;-86
2023/04/29 08:58:10;;;;;;;10.75;6.53;;;15.80;99.90;;;;;;6166238;23;20385;-85
2023/04/29 09:00:38;;;;;;;9.65;6.85;;;15.50;99.90;;;;;;6191764;23;20020;-85
2023/04/29 09:03:21;;;;;;;10.70;6.55;;;15.50;99.90;;;;;;6166204;23;20392;-85
2023/04/29 09:05:51;;;;;;;19.65;8.35;;;15.40;99.90;;;;;;6190441;23;20019;-85
2023/04/29 09:08:18;;;;;;;12.80;7.60;;;15.10;99.90;;;;;;6165317;23;20076;-85
2023/04/29 09:10:43;;;;;;;14.02;7.40;;;15.10;99.90;;;;;;6190333;23;20088;-85
2023/04/29 09:13:25;;;;;;;13.98;7.43;;;15.10;99.90;;;;;;6190442;23;20513;-88
2023/04/29 09:15:51;;;;;;;14.07;7.10;;;15.10;99.90;;;;;;6190532;23;20085;-86
2023/04/29 09:18:46;;;;;;;12.60;7.88;;;15.10;99.90;;;;;;6165622;23;20443;-85
2023/04/29 09:21:31;;;;;;;12.07;6.82;;;15.00;99.90;;;;;;6165253;23;20379;-85
2023/04/29 09:23:58;;;;;;;12.80;6.88;;;14.80;99.90;;;;;;6164853;23;20028;-86
2023/04/29 09:26:26;;;;;;;13.30;7.55;;;15.00;99.90;;;;;;6164769;23;20440;-85
2023/04/29 09:29:17;;;;;;;13.52;7.72;;;15.10;99.90;;;;;;6165522;23;20456;-85
2023/04/29 09:31:43;;;;;;;14.68;8.55;;;15.00;99.90;;;;;;6216631;23;20009;-85
2023/04/29 09:34:10;;;;;;;11.73;7.20;;;15.00;99.90;;;;;;6189904;23;20092;-85
2023/04/29 09:36:44;;;;;;;11.80;7.68;;;15.40;99.90;;;;;;6166742;23;20052;-85
2023/04/29 09:39:16;;;;;;;13.70;8.20;;;15.50;99.90;;;;;;6167949;23;20048;-85
2023/04/29 09:42:01;;;;;;;13.27;6.72;;;15.20;99.90;;;;;;6192097;23;20004;-86
2023/04/29 09:44:34;;;;;;;11.40;7.05;;;15.10;99.90;;;;;;6192688;23;20023;-85
2023/04/29 09:47:07;;;;;;;11.40;7.30;;;14.80;99.90;;;;;;6192903;23;20013;-85
2023/04/29 09:49:47;;;;;;;11.20;7.03;;;14.80;99.90;;;;;;6165724;23;20072;-86
2023/04/29 09:52:15;;;;;;;10.63;6.47;;;14.70;99.90;;;;;;6190847;23;20034;-85
2023/04/29 09:54:42;;;;;;;13.25;7.07;;;14.20;99.90;;;;;;6190180;23;20016;-84
2023/04/29 09:57:10;;;;;;;13.52;6.70;;;14.20;99.90;;;;;;6190179;23;20096;-85
2023/04/29 09:59:38;;;;;;;13.68;7.18;;;14.20;99.90;;;;;;6165833;23;20009;-86
2023/04/29 10:02:15;;;;;;;14.48;6.43;;;14.20;99.90;;;;;;6190207;23;20008;-87
2023/04/29 10:04:43;;;;;;;10.93;6.43;;;14.10;99.90;;;;;;6190325;23;20509;-88
2023/04/29 10:07:14;;;;;;;9.45;5.75;;;14.20;99.90;;;;;;6168442;23;20460;-86
2023/04/29 10:09:40;;;;;;;9.55;6.18;;;14.20;99.90;;;;;;6195822;23;20036;-87
2023/04/29 10:12:06;;;;;;;11.07;6.32;;;14.40;99.90;;;;;;6195818;23;20408;-86
2023/04/29 10:14:40;;;;;;;8.73;5.32;;;14.40;99.90;;;;;;6191938;23;20016;-87
2023/04/29 10:17:31;;;;;;;11.40;5.75;;;14.40;99.90;;;;;;6192504;23;20016;-87
2023/04/29 10:20:04;;;;;;;10.63;6.15;;;14.50;99.90;;;;;;6189292;23;20441;-87
2023/04/29 10:22:42;;;;;;;10.80;7.05;;;14.40;99.90;;;;;;6165062;23;20005;-87
2023/04/29 10:25:10;;;;;;;10.85;6.75;;;14.50;99.90;;;;;;6165549;23;20008;-87
2023/04/29 10:27:38;;;;;;;13.48;7.00;;;14.40;99.90;;;;;;6167303;23;20059;-86
2023/04/29 10:30:06;;;;;;;10.48;6.85;;;14.40;99.90;;;;;;6189282;23;20013;-85
2023/04/29 10:32:33;;;;;;;12.40;6.72;;;14.40;99.90;;;;;;6218216;23;20013;-86
2023/04/29 10:35:01;;;;;;;10.25;6.55;;;14.50;99.90;;;;;;6189845;23;20068;-86
2023/04/29 10:37:27;;;;;;;9.30;6.30;;;14.70;99.90;;;;;;6171966;23;20012;-84
2023/04/29 10:40:23;;;;;;;11.27;6.63;;;14.80;99.90;;;;;;6190330;23;20486;-86
2023/04/29 10:42:51;;;;;;;9.30;6.00;;;14.80;99.90;;;;;;6188927;23;20066;-85
2023/04/29 10:45:28;;;;;;;9.75;6.03;;;15.10;99.90;;;;;;6189788;23;20009;-86
2023/04/29 10:48:09;;;;;;;9.10;5.50;;;15.10;99.90;;;;;;6188975;23;20020;-86
2023/04/29 10:50:47;;;;;;;7.55;5.43;;;15.10;99.90;;;;;;6189350;23;20025;-86
2023/04/29 10:53:21;;;;;;;12.70;7.00;;;15.00;99.90;;;;;;6189723;23;20023;-86
2023/04/29 10:55:48;;;;;;;10.52;5.70;;;14.80;99.90;;;;;;6198366;23;20031;-86
2023/04/29 10:58:32;;;;;;;9.55;5.43;;;14.70;99.90;;;;;;6172119;23;20017;-86
2023/04/29 11:00:58;;;;;;;12.80;5.88;;;14.80;99.90;;;;;;6163532;23;20012;-87
2023/04/29 11:03:46;;;;;;;10.23;6.03;;;14.30;99.90;;;;;;6170328;23;20027;-86
2023/04/29 11:06:11;;;;;;;9.63;5.60;;;14.40;99.90;;;;;;6169206;23;20016;-86
2023/04/29 11:08:40;;;;;;;9.45;6.30;;;14.30;99.90;;;;;;6169195;23;20023;-87
2023/04/29 11:11:06;;;;;;;10.85;6.38;;;14.60;99.90;;;;;;6174095;23;20024;-87
2023/04/29 11:13:40;;;;;;;12.65;6.57;;;14.70;99.90;;;;;;6164241;23;20013;-87
2023/04/29 11:16:10;;;;;;;11.98;6.75;;;14.90;99.90;;;;;;6164238;23;20020;-86
2023/04/29 11:19:08;;;;;;;9.40;5.82;;;15.10;99.90;;;;;;6185384;23;20013;-86
2023/04/29 11:21:37;;;;;;;7.80;4.65;;;15.20;99.90;;;;;;6150442;23;20020;-86
2023/04/29 11:24:05;;;;;;;10.20;5.25;;;14.90;99.80;;;;;;6158667;23;20013;-86
2023/04/29 11:26:35;;;;;;;10.30;5.32;;;15.30;99.90;;;;;;6189034;23;20047;-86
2023/04/29 11:29:01;;;;;;;11.20;4.70;;;15.30;99.90;;;;;;6159962;23;20017;-87
2023/04/29 11:31:30;;;;;;;8.25;4.35;;;15.20;99.90;;;;;;6159162;23;20036;-87
2023/04/29 11:33:56;;;;;;;7.35;3.60;;;15.00;98.10;;;;;;6183048;23;20502;-86
2023/04/29 11:36:22;;;;;;;8.38;4.13;;;15.20;99.60;;;;;;6159831;23;20092;-86
2023/04/29 11:38:47;;;;;;;8.00;3.85;;;15.20;99.90;;;;;;6161133;23;20016;-86
2023/04/29 11:41:14;;;;;;;8.77;3.58;;;15.40;98.80;;;;;;6184383;23;20067;-87
2023/04/29 11:43:40;;;;;;;8.48;2.97;;;15.40;98.40;;;;;;6159033;23;20045;-87
2023/04/29 11:46:13;;;;;;;7.35;3.35;;;15.10;98.70;;;;;;6184109;23;20048;-87
2023/04/29 11:48:47;;;;;;;5.75;3.03;;;15.10;99.00;;;;;;6187186;23;20013;-87
2023/04/29 11:51:13;;;;;;;;;;;15.20;97.00;;;;;;6183948;23;20032;-86
2023/04/29 11:53:39;;;;;;;7.53;2.85;;;15.20;98.20;;;;;;6160969;23;19912;-86
2023/04/29 11:56:05;;;;;;;6.38;2.65;;;15.10;95.80;;;;;;6160453;23;20056;-86
2023/04/29 11:58:30;;;;;;;5.72;2.40;;;15.00;95.80;;;;;;6184249;23;20012;-86
2023/04/29 12:00:57;;;;;;;8.18;2.60;;;15.00;96.50;;;;;;6159184;23;20020;-87
2023/04/29 12:03:23;;;;;;;5.07;2.10;;;15.10;96.20;;;;;;6156275;23;20017;-87
2023/04/29 12:05:56;;;;;;;10.45;3.72;;;15.20;95.20;;;;;;6156553;23;20020;-87
2023/04/29 12:08:24;;;;;;;7.25;2.70;;;15.10;94.30;;;;;;6156411;23;20049;-87
2023/04/29 12:10:51;;;;;;;5.97;2.60;;;15.30;95.50;;;;;;6183395;23;20009;-88
2023/04/29 12:13:17;;;;;;;6.25;2.70;;;15.50;96.60;;;;;;6156586;23;20032;-87
2023/04/29 12:15:48;;;;;;;4.95;2.03;;;15.60;94.90;;;;;;6156202;23;20020;-86
2023/04/29 12:18:19;;;;;;;6.72;2.53;;;15.80;94.30;;;;;;6158469;23;20420;-88
2023/04/29 12:20:47;;;;;;;5.97;2.50;;;15.30;93.60;;;;;;6158094;23;20084;-87
2023/04/29 12:23:12;;;;;;;7.78;2.80;;;15.00;95.00;;;;;;6183167;23;20009;-87
2023/04/29 12:25:40;;;;;;;11.27;3.20;;;15.20;96.80;;;;;;6180976;23;20376;-86
2023/04/29 12:28:13;;;;;;;8.52;3.22;;;15.30;96.90;;;;;;6156378;23;20019;-87
2023/04/29 12:30:39;;;;;;;8.20;3.17;;;15.30;96.00;;;;;;6181882;23;20413;-87
2023/04/29 12:33:08;;;;;;;7.13;2.75;;;15.30;96.00;;;;;;6157912;23;20093;-87
2023/04/29 12:35:34;;;;;;;8.07;2.90;;;15.20;95.90;;;;;;6181246;23;20013;-87
2023/04/29 12:38:01;;;;;;;6.30;2.72;;;15.10;94.90;;;;;;6182547;23;20013;-85
2023/04/29 12:40:27;;;;;;;8.60;2.60;;;15.30;94.70;;;;;;6181407;23;20044;-87
2023/04/29 12:42:53;;;;;;;5.78;2.92;;;15.20;94.90;;;;;;6182591;23;20444;-87